Pagina principale
METAR-TAF:

METAR-TAF

Aeroporti :

Brighton, Inghilterra

latitudine: 50-50N, longitudine: 000-17W, altezza: 2 m

Osservazione

Il bollettino è stato emesso 50 minuti fa, alle 16:50 UTC
Vento 15 kt da nord/nord-est
Temperature 22°C
Umidità 41%
Pressione 1020 hPa
Visibilità 10 km o più
nessuna nube inferiore a 1500 m e nessun cumulonembo

METAR: EGKA 311650Z 03015KT CAVOK 22/08 Q1020

Ora: 18:40 (17:40 UTC)

Previsione

Il bollettino è stato emesso 3 ore e 39 minuti fa, alle 14:01 UTC
Previsione valida dal 31 alle 15 UTC al 31 alle 17 UTC
Vento 13 kt da est/nord-est
Visibilità 10 km o più
nessuna nube inferiore a 1500 m e nessun cumulonembo
Probabilità 40% :
Temporaneamente
dal 31 alle 15 UTC al 31 alle 17 UTC
Vento 16 kt da nord-est con raffiche fino a 26 kt

TAF: EGKA 311401Z 3115/3117 07013KT CAVOK PROB40 TEMPO 3115/3117 05016G26KT

Osservazioni e previsioni meteorologiche di più di 4000 aeroporti (messaggi METAR e TAF).

Le stazioni disponibili sono rappresentate dai dischi gialli e rossi sulla carta.

Puntare il mouse per vedere il nome della stazione.

Clicca sopra per visualizzare le osservazioni e previsioni meteorologiche.

Per cambiare la mappa : fare clic sui pulsanti verdi con una croce nera per ingrandire, il pulsante verde con un trattino per diminuire, o sulla freccia verde per le mappe adiacenti.


METAR-TAF: